Time;durP1;ratioP1;P1;durP2;ratioP2;P2;SDS_P1;SDS_P2;PMS_P1;PMS_P2;Temp;Humidity;BMP_temperature;BMP_pressure;BME280_temperature;BME280_humidity;BME280_pressure;Samples;Min_cycle;Max_cycle;Signal;HPM_P1;HPM_P2
2022/09/20 00:01:27;;;;;;;2.05;1.70;;;14.40;64.40;;;;;;5116208;28;20027;-17
2022/09/20 00:03:58;;;;;;;5.47;1.98;;;14.40;63.90;;;;;;5115302;28;20032;-16
2022/09/20 00:06:27;;;;;;;2.45;1.90;;;14.50;63.80;;;;;;5115602;28;20116;-15
2022/09/20 00:08:55;;;;;;;3.10;1.65;;;14.50;64.00;;;;;;5115290;28;20031;-17
2022/09/20 00:11:24;;;;;;;2.45;1.30;;;14.50;63.30;;;;;;5115135;28;20521;-16
2022/09/20 00:13:53;;;;;;;2.78;1.50;;;14.50;63.50;;;;;;5115102;28;20020;-16
2022/09/20 00:16:32;;;;;;;1.80;1.42;;;14.50;64.20;;;;;;5114897;28;20027;-18
2022/09/20 00:19:01;;;;;;;1.77;1.30;;;14.50;64.30;;;;;;5115178;28;20035;-16
2022/09/20 00:21:29;;;;;;;2.30;1.40;;;14.40;63.80;;;;;;5114940;28;20115;-16
2022/09/20 00:23:57;;;;;;;2.30;1.45;;;14.40;63.80;;;;;;5114843;28;20077;-17
2022/09/20 00:26:25;;;;;;;1.20;1.10;;;14.40;63.80;;;;;;5115166;28;20084;-15
2022/09/20 00:28:50;;;;;;;3.58;1.48;;;14.40;63.90;;;;;;5114604;28;20085;-17
2022/09/20 00:31:16;;;;;;;1.45;1.20;;;14.30;63.90;;;;;;5114766;28;20039;-16
2022/09/20 00:36:28;;;;;;;3.70;1.60;;;14.30;63.40;;;;;;5115142;28;20031;-17
2022/09/20 00:38:59;;;;;;;1.95;1.50;;;14.30;63.30;;;;;;5114419;28;20471;-17
2022/09/20 00:41:26;;;;;;;2.58;1.27;;;14.20;63.60;;;;;;5114915;28;20374;-17
2022/09/20 00:43:53;;;;;;;2.92;1.40;;;14.20;63.00;;;;;;5114783;28;20035;-16
2022/09/20 00:46:26;;;;;;;2.22;1.15;;;14.20;62.70;;;;;;5114365;28;20031;-18
2022/09/20 00:49:00;;;;;;;1.83;1.23;;;14.20;62.50;;;;;;5114302;28;20034;-16
2022/09/20 00:51:31;;;;;;;2.17;1.17;;;14.20;62.40;;;;;;5114785;28;20057;-17
2022/09/20 00:54:00;;;;;;;1.98;1.40;;;14.10;62.80;;;;;;5114667;28;20032;-16
2022/09/20 00:56:33;;;;;;;1.90;1.10;;;14.10;62.60;;;;;;5114267;28;20039;-16
2022/09/20 00:59:05;;;;;;;1.88;1.40;;;14.10;62.50;;;;;;5114188;28;20024;-16
2022/09/20 01:01:31;;;;;;;2.00;1.30;;;14.10;62.80;;;;;;5114669;28;20533;-17
2022/09/20 01:03:59;;;;;;;2.47;1.30;;;14.10;62.70;;;;;;5114382;28;20056;-15
2022/09/20 01:06:25;;;;;;;2.67;1.13;;;14.10;62.50;;;;;;5114131;28;20034;-16
2022/09/20 01:08:53;;;;;;;1.10;1.00;;;14.00;62.60;;;;;;5113820;28;20098;-16
2022/09/20 01:11:19;;;;;;;1.58;1.10;;;14.00;62.40;;;;;;5114011;28;20368;-18
2022/09/20 01:13:45;;;;;;;1.13;1.00;;;14.00;62.40;;;;;;5114176;28;20046;-17
2022/09/20 01:16:14;;;;;;;1.42;1.00;;;13.90;62.20;;;;;;5113961;28;20102;-17
2022/09/20 01:18:41;;;;;;;1.67;1.20;;;13.90;62.20;;;;;;5113913;28;20024;-16
2022/09/20 01:21:08;;;;;;;1.30;0.85;;;13.90;62.20;;;;;;5113747;28;20126;-17
2022/09/20 01:24:02;;;;;;;1.05;0.80;;;13.80;62.50;;;;;;5113960;28;20360;-16
2022/09/20 01:26:36;;;;;;;1.30;1.00;;;13.80;62.20;;;;;;5113887;28;20027;-17
2022/09/20 01:29:18;;;;;;;2.28;0.93;;;13.70;62.30;;;;;;5113698;28;20506;-16
2022/09/20 01:31:53;;;;;;;1.50;0.82;;;13.70;62.50;;;;;;5113543;28;20044;-16
2022/09/20 01:34:47;;;;;;;1.40;0.90;;;13.60;62.30;;;;;;5114056;28;20019;-16
2022/09/20 01:37:45;;;;;;;2.75;1.20;;;13.50;62.70;;;;;;5114293;28;20023;-16
2022/09/20 01:40:26;;;;;;;5.05;1.23;;;13.40;62.90;;;;;;5114303;28;20098;-16
2022/09/20 01:43:12;;;;;;;2.40;1.60;;;13.40;63.10;;;;;;5113738;28;20027;-16
2022/09/20 01:45:44;;;;;;;3.33;1.70;;;13.30;63.90;;;;;;5113855;28;20084;-16
2022/09/20 01:48:18;;;;;;;2.70;1.65;;;13.20;63.90;;;;;;5113511;28;20483;-18
2022/09/20 01:51:07;;;;;;;2.42;1.42;;;13.20;63.60;;;;;;5113724;28;20020;-15
2022/09/20 01:53:46;;;;;;;2.88;1.70;;;13.10;63.70;;;;;;5113769;28;20088;-16
2022/09/20 01:56:25;;;;;;;2.15;1.65;;;13.10;63.30;;;;;;5113505;28;20030;-16
2022/09/20 01:59:30;;;;;;;1.90;1.50;;;13.00;63.10;;;;;;5095000;28;20125;-17
2022/09/20 02:02:07;;;;;;;1.40;1.30;;;13.10;62.90;;;;;;5113697;28;20032;-16
2022/09/20 02:05:06;;;;;;;1.83;1.63;;;13.00;62.60;;;;;;5113704;28;20031;-16
2022/09/20 02:08:08;;;;;;;1.92;1.50;;;13.00;62.70;;;;;;5068807;28;20031;-16
2022/09/20 02:11:15;;;;;;;2.38;1.60;;;12.90;62.60;;;;;;5082678;28;20100;-17
2022/09/20 02:14:04;;;;;;;3.30;1.60;;;12.90;62.60;;;;;;5102394;28;20016;-16
2022/09/20 02:16:47;;;;;;;1.10;1.00;;;12.90;62.40;;;;;;5113491;28;20030;-17
2022/09/20 02:20:00;;;;;;;1.25;0.98;;;12.90;62.60;;;;;;5113650;28;20532;-18
2022/09/20 02:23:01;;;;;;;1.90;1.20;;;12.80;62.60;;;;;;5034573;28;20045;-17
2022/09/20 02:25:42;;;;;;;1.33;1.15;;;12.80;62.60;;;;;;5034876;28;20041;-16
2022/09/20 02:28:10;;;;;;;1.33;1.23;;;12.80;62.40;;;;;;5034508;28;20113;-17
2022/09/20 02:30:48;;;;;;;1.70;1.10;;;12.80;62.70;;;;;;5034385;28;20099;-16
2022/09/20 02:33:22;;;;;;;1.55;1.13;;;12.80;62.70;;;;;;5034351;28;20021;-16
2022/09/20 02:36:09;;;;;;;3.13;1.50;;;12.70;62.80;;;;;;5034448;28;20114;-15
2022/09/20 02:39:10;;;;;;;2.67;1.08;;;12.70;62.80;;;;;;5034561;28;20061;-16
2022/09/20 02:42:03;;;;;;;0.85;0.80;;;12.60;63.40;;;;;;5027866;28;20038;-17
2022/09/20 02:44:47;;;;;;;1.83;1.08;;;12.60;63.00;;;;;;5034213;28;20515;-15
2022/09/20 02:47:34;;;;;;;;;;;12.60;62.80;;;;;;5034611;28;20112;-16
2022/09/20 02:50:29;;;;;;;0.77;0.73;;;12.50;63.00;;;;;;5034131;28;19905;-16
2022/09/20 02:53:01;;;;;;;1.15;0.88;;;12.60;62.60;;;;;;5033976;28;20429;-16
2022/09/20 02:55:45;;;;;;;1.23;0.88;;;12.50;62.30;;;;;;5034587;28;20029;-16
2022/09/20 02:58:31;;;;;;;1.48;0.70;;;12.50;62.30;;;;;;5053394;28;20039;-15
2022/09/20 03:01:03;;;;;;;1.02;0.93;;;12.40;62.40;;;;;;5116376;28;20028;-16
2022/09/20 03:03:53;;;;;;;1.58;0.80;;;12.40;62.30;;;;;;5116659;28;20054;-16
2022/09/20 03:06:56;;;;;;;1.70;1.02;;;12.40;62.20;;;;;;5098354;28;20493;-16
2022/09/20 03:09:39;;;;;;;1.42;0.70;;;12.40;62.10;;;;;;5116947;28;20015;-16
2022/09/20 03:12:17;;;;;;;1.55;1.02;;;12.40;62.10;;;;;;5116595;28;20028;-16
2022/09/20 03:15:06;;;;;;;1.52;1.05;;;12.30;62.10;;;;;;5116549;28;20048;-16
2022/09/20 03:17:54;;;;;;;1.50;0.73;;;12.30;62.10;;;;;;5116237;28;20030;-16
2022/09/20 03:20:32;;;;;;;2.63;1.13;;;12.30;62.30;;;;;;5116491;28;20027;-16
2022/09/20 03:23:21;;;;;;;1.85;0.82;;;12.20;62.20;;;;;;5116020;28;20024;-17
2022/09/20 03:26:01;;;;;;;1.70;0.80;;;12.20;62.30;;;;;;5116434;28;20028;-15
2022/09/20 03:28:58;;;;;;;2.83;0.95;;;12.20;62.40;;;;;;5116329;28;20027;-15
2022/09/20 03:31:34;;;;;;;1.45;0.88;;;12.20;62.40;;;;;;5115513;28;20048;-18
2022/09/20 03:34:17;;;;;;;1.90;1.00;;;12.20;62.50;;;;;;5115945;28;20024;-17
2022/09/20 03:37:14;;;;;;;0.77;0.77;;;12.10;62.60;;;;;;5115940;28;20073;-17
2022/09/20 03:39:44;;;;;;;0.98;0.95;;;12.10;62.70;;;;;;5115933;28;20063;-18
2022/09/20 03:42:30;;;;;;;1.00;0.82;;;12.10;63.10;;;;;;5116053;28;20032;-18
2022/09/20 03:45:25;;;;;;;0.85;0.85;;;12.10;62.90;;;;;;5115481;28;20521;-16
2022/09/20 03:47:58;;;;;;;0.90;0.60;;;12.20;63.50;;;;;;5115872;28;20027;-18
2022/09/20 03:50:53;;;;;;;0.80;0.80;;;12.10;64.10;;;;;;5115802;28;20076;-22
2022/09/20 03:53:34;;;;;;;1.15;0.80;;;12.00;63.90;;;;;;5115895;28;20022;-16
2022/09/20 03:56:10;;;;;;;0.98;0.80;;;12.00;63.40;;;;;;5115957;28;20492;-17
2022/09/20 03:59:09;;;;;;;1.27;0.80;;;12.00;63.70;;;;;;5115622;28;20080;-17
2022/09/20 04:01:44;;;;;;;1.20;0.90;;;11.90;64.70;;;;;;5115259;28;20403;-16
2022/09/20 04:04:25;;;;;;;0.65;0.65;;;11.80;64.50;;;;;;5115633;28;20071;-16
2022/09/20 04:07:13;;;;;;;1.27;1.00;;;11.80;64.50;;;;;;5115197;28;20062;-16
2022/09/20 04:10:12;;;;;;;2.22;0.98;;;11.80;64.90;;;;;;5116152;28;20028;-17
2022/09/20 04:12:56;;;;;;;1.58;1.48;;;11.70;64.90;;;;;;5110261;28;20040;-16
2022/09/20 04:15:36;;;;;;;1.10;1.00;;;11.60;65.30;;;;;;5115458;28;20023;-16
2022/09/20 04:18:32;;;;;;;1.05;0.73;;;11.50;65.30;;;;;;5115337;28;20024;-18
2022/09/20 04:21:05;;;;;;;1.55;0.80;;;11.40;65.40;;;;;;5114928;28;20026;-16
2022/09/20 04:23:48;;;;;;;1.30;1.15;;;11.30;65.60;;;;;;5115146;28;20438;-16
2022/09/20 04:26:30;;;;;;;1.40;1.30;;;11.30;66.20;;;;;;5115274;28;20031;-16
2022/09/20 04:29:29;;;;;;;1.92;1.23;;;11.20;66.60;;;;;;5114703;28;20035;-18
2022/09/20 04:32:18;;;;;;;2.53;1.52;;;11.00;66.70;;;;;;5041564;28;20052;-16
2022/09/20 04:37:48;;;;;;;3.85;1.70;;;10.90;67.10;;;;;;5115052;28;20521;-16
2022/09/20 04:40:23;;;;;;;2.05;1.65;;;10.90;67.40;;;;;;5114846;28;20410;-16
2022/09/20 04:43:26;;;;;;;3.03;1.30;;;10.80;67.70;;;;;;5113919;28;20080;-17
2022/09/20 04:46:07;;;;;;;1.88;1.70;;;10.70;68.00;;;;;;5114547;28;20081;-16
2022/09/20 04:49:28;;;;;;;4.43;2.40;;;10.70;68.50;;;;;;5114717;28;20034;-16
2022/09/20 04:52:22;;;;;;;4.15;2.72;;;10.60;68.30;;;;;;5032305;28;20057;-16
2022/09/20 04:55:26;;;;;;;5.38;2.55;;;10.50;68.20;;;;;;5031448;28;20037;-15
2022/09/20 04:58:22;;;;;;;4.13;2.93;;;10.60;68.30;;;;;;5114762;28;20479;-16
2022/09/20 05:01:15;;;;;;;4.80;3.05;;;10.60;68.70;;;;;;5114061;28;20246;-16
2022/09/20 05:04:02;;;;;;;6.22;2.75;;;10.60;68.30;;;;;;5114057;28;20562;-15
2022/09/20 05:06:52;;;;;;;4.47;2.50;;;10.50;69.60;;;;;;5114128;28;20461;-17
2022/09/20 05:09:46;;;;;;;4.47;2.53;;;10.50;68.70;;;;;;5114409;28;20020;-18
2022/09/20 05:12:20;;;;;;;7.05;3.25;;;10.50;68.60;;;;;;5114387;28;20475;-17
2022/09/20 05:15:07;;;;;;;4.68;2.30;;;10.60;68.90;;;;;;5114328;28;20027;-17
2022/09/20 05:18:02;;;;;;;4.40;2.83;;;10.60;69.10;;;;;;5113957;28;20024;-16
2022/09/20 05:20:47;;;;;;;4.32;2.65;;;10.80;70.20;;;;;;5072081;28;20030;-16
2022/09/20 05:23:43;;;;;;;6.18;2.60;;;10.80;69.90;;;;;;5114386;28;20084;-16
2022/09/20 05:26:18;;;;;;;5.93;2.70;;;10.90;68.80;;;;;;5113870;28;20555;-17
2022/09/20 05:28:52;;;;;;;3.05;1.90;;;11.00;68.80;;;;;;5113810;28;20023;-17
2022/09/20 05:31:18;;;;;;;;;;;11.10;68.00;;;;;;5114140;28;20410;-16
2022/09/20 05:33:55;;;;;;;2.53;2.10;;;11.30;68.20;;;;;;5114176;28;20359;-16
2022/09/20 05:36:55;;;;;;;3.97;2.50;;;11.40;68.00;;;;;;5113705;28;20077;-16
2022/09/20 05:39:23;;;;;;;4.30;2.47;;;11.50;67.80;;;;;;5114212;28;20103;-16
2022/09/20 05:42:03;;;;;;;3.58;2.03;;;11.70;67.60;;;;;;5113555;28;20049;-16
2022/09/20 05:44:44;;;;;;;4.38;2.40;;;11.80;66.90;;;;;;5113949;28;20036;-16
2022/09/20 05:47:44;;;;;;;5.85;2.75;;;11.90;67.70;;;;;;5113609;28;20051;-16
2022/09/20 05:50:28;;;;;;;4.75;2.70;;;12.10;66.60;;;;;;5109657;28;20039;-16
2022/09/20 05:53:17;;;;;;;5.28;2.95;;;12.40;67.90;;;;;;5113646;28;20019;-16
2022/09/20 05:56:18;;;;;;;7.20;2.97;;;12.50;67.90;;;;;;5116236;28;20023;-15
2022/09/20 05:58:44;;;;;;;4.97;2.35;;;12.70;66.90;;;;;;5072391;28;20024;-16
2022/09/20 06:01:29;;;;;;;4.63;2.45;;;12.90;66.30;;;;;;5117478;28;20368;-16
2022/09/20 06:03:55;;;;;;;4.75;2.28;;;13.00;65.60;;;;;;5117577;28;20024;-18
2022/09/20 06:06:31;;;;;;;6.07;2.38;;;13.20;65.20;;;;;;5117895;28;20069;-16
2022/09/20 06:09:33;;;;;;;3.70;2.28;;;13.40;64.30;;;;;;5117734;28;20028;-16
2022/09/20 06:12:28;;;;;;;5.68;3.00;;;13.50;66.40;;;;;;5117932;28;20481;-16
2022/09/20 06:15:18;;;;;;;4.50;2.40;;;13.70;65.10;;;;;;5117342;28;20413;-15
2022/09/20 06:18:02;;;;;;;5.65;2.58;;;13.90;64.40;;;;;;5117656;28;20016;-15
2022/09/20 06:20:45;;;;;;;4.07;2.42;;;14.10;63.70;;;;;;5117720;28;20106;-16
2022/09/20 06:23:12;;;;;;;4.10;2.35;;;14.30;64.00;;;;;;5117107;28;20023;-17
2022/09/20 06:25:56;;;;;;;3.60;1.98;;;14.40;63.10;;;;;;5099083;28;20031;-15
2022/09/20 06:28:27;;;;;;;;;;;14.70;62.70;;;;;;5117676;28;20032;-15
2022/09/20 06:30:56;;;;;;;5.22;2.30;;;14.90;61.00;;;;;;5116851;28;19915;-16
2022/09/20 06:33:29;;;;;;;2.92;1.88;;;15.00;61.40;;;;;;5117027;28;20027;-17
2022/09/20 06:42:24;;;;;;;2.58;1.50;;;15.90;58.00;;;;;;5103695;28;20030;-16
2022/09/20 06:44:51;;;;;;;3.33;1.30;;;16.20;59.20;;;;;;5117099;28;20062;-17
2022/09/20 06:47:17;;;;;;;2.10;1.30;;;16.50;58.60;;;;;;5116732;28;20072;-16
2022/09/20 06:49:45;;;;;;;4.22;1.40;;;16.90;57.20;;;;;;5116809;28;20024;-15
2022/09/20 06:52:16;;;;;;;2.60;1.30;;;17.20;56.80;;;;;;5116752;28;20031;-15
2022/09/20 06:54:45;;;;;;;2.38;1.13;;;17.50;55.40;;;;;;5116707;28;20027;-16
2022/09/20 06:57:17;;;;;;;3.40;1.30;;;17.60;54.80;;;;;;5116461;28;20027;-16
2022/09/20 06:59:44;;;;;;;3.25;1.10;;;17.90;53.60;;;;;;5117042;28;20060;-16
2022/09/20 07:02:10;;;;;;;4.85;1.60;;;18.20;53.80;;;;;;5116416;28;20028;-16
2022/09/20 07:04:37;;;;;;;2.08;1.35;;;18.40;53.40;;;;;;5116647;28;20031;-16
2022/09/20 07:07:05;;;;;;;3.92;1.35;;;18.70;52.60;;;;;;5115869;28;20024;-15
2022/09/20 07:09:31;;;;;;;1.27;1.17;;;18.90;51.70;;;;;;5116653;28;20378;-15
2022/09/20 07:12:00;;;;;;;1.48;0.98;;;19.10;51.50;;;;;;5116611;28;20474;-16
2022/09/20 07:14:27;;;;;;;1.45;1.20;;;19.30;51.40;;;;;;5116677;28;20023;-15
2022/09/20 07:16:53;;;;;;;3.50;1.10;;;19.50;51.30;;;;;;5116260;28;20044;-16
2022/09/20 07:19:22;;;;;;;1.92;0.90;;;19.60;47.60;;;;;;5116494;28;20028;-15
2022/09/20 07:21:48;;;;;;;1.35;1.10;;;19.80;47.90;;;;;;5116172;28;20543;-16
2022/09/20 07:24:14;;;;;;;2.53;1.00;;;19.90;46.60;;;;;;5116476;28;20107;-16
2022/09/20 07:26:54;;;;;;;1.20;1.05;;;20.00;47.50;;;;;;5116388;28;20027;-15
2022/09/20 07:29:21;;;;;;;3.72;1.10;;;20.10;44.30;;;;;;5116060;28;20024;-15
2022/09/20 07:31:49;;;;;;;1.83;1.00;;;20.20;45.50;;;;;;5116027;28;20051;-15
2022/09/20 07:34:19;;;;;;;0.80;0.80;;;20.40;46.50;;;;;;5115961;28;20024;-15
2022/09/20 07:36:46;;;;;;;3.00;1.05;;;20.70;46.40;;;;;;5116078;28;20474;-15
2022/09/20 07:39:12;;;;;;;4.35;1.15;;;20.90;46.00;;;;;;5116136;28;20020;-15
2022/09/20 07:41:38;;;;;;;2.60;1.30;;;21.10;43.50;;;;;;5116060;28;20015;-15
2022/09/20 07:46:49;;;;;;;4.00;1.35;;;21.20;44.70;;;;;;5115505;28;20039;-16
2022/09/20 07:49:15;;;;;;;2.60;1.27;;;21.30;42.90;;;;;;5115762;28;20027;-16
2022/09/20 07:51:41;;;;;;;2.80;0.85;;;21.20;41.10;;;;;;5116025;28;20027;-15
2022/09/20 07:54:07;;;;;;;3.33;1.10;;;21.20;42.10;;;;;;5116190;28;20031;-15
2022/09/20 07:56:34;;;;;;;2.00;1.13;;;21.40;41.90;;;;;;5115785;28;20126;-15
2022/09/20 08:01:29;;;;;;;3.25;0.95;;;21.90;40.80;;;;;;5071953;28;20051;-15
2022/09/20 08:03:56;;;;;;;0.80;0.77;;;22.00;41.10;;;;;;5075007;28;20028;-16
2022/09/20 08:06:22;;;;;;;3.63;0.88;;;22.10;41.50;;;;;;5075059;28;20090;-15
2022/09/20 08:08:50;;;;;;;1.27;0.90;;;22.20;40.40;;;;;;5074774;28;20036;-14
2022/09/20 08:11:24;;;;;;;0.95;0.80;;;22.30;41.20;;;;;;5074913;28;20111;-15
2022/09/20 08:13:52;;;;;;;1.52;0.80;;;22.20;40.50;;;;;;5074941;28;20090;-16
2022/09/20 08:16:19;;;;;;;1.35;0.88;;;22.10;42.10;;;;;;5074479;28;20025;-14
2022/09/20 08:19:03;;;;;;;1.65;0.98;;;22.00;41.80;;;;;;5073927;28;20052;-15
2022/09/20 08:21:33;;;;;;;2.78;0.88;;;22.00;41.70;;;;;;5074953;28;20090;-15
2022/09/20 08:24:00;;;;;;;3.13;0.98;;;22.00;42.50;;;;;;5074220;28;20119;-14
2022/09/20 08:26:29;;;;;;;2.50;0.80;;;21.90;41.60;;;;;;5074489;28;20056;-15
2022/09/20 08:28:57;;;;;;;1.27;0.70;;;21.90;41.40;;;;;;5074013;28;20391;-15
2022/09/20 08:31:25;;;;;;;2.17;0.70;;;22.00;42.30;;;;;;5074836;28;20097;-15
2022/09/20 08:33:53;;;;;;;0.52;0.52;;;22.20;41.50;;;;;;5074458;28;20472;-15
2022/09/20 08:36:24;;;;;;;1.17;0.80;;;22.30;42.00;;;;;;5074122;28;20028;-15
2022/09/20 08:38:52;;;;;;;0.60;0.60;;;22.40;41.10;;;;;;5073987;28;20494;-16
2022/09/20 08:41:21;;;;;;;0.73;0.70;;;22.60;42.10;;;;;;5074020;28;20495;-15
2022/09/20 08:44:10;;;;;;;0.75;0.57;;;23.00;40.40;;;;;;5074215;28;20059;-16
2022/09/20 08:46:47;;;;;;;1.73;0.60;;;23.40;40.00;;;;;;5073930;28;20033;-15
2022/09/20 08:49:25;;;;;;;2.10;0.70;;;23.70;39.70;;;;;;5074208;28;20483;-15
2022/09/20 08:51:52;;;;;;;0.70;0.68;;;23.90;39.00;;;;;;5074129;28;20028;-15
2022/09/20 08:54:18;;;;;;;1.15;0.73;;;24.20;39.40;;;;;;5074099;28;20024;-15
2022/09/20 08:56:45;;;;;;;2.38;0.73;;;24.40;39.60;;;;;;5073859;28;20490;-17
2022/09/20 08:59:16;;;;;;;1.95;0.63;;;24.30;38.50;;;;;;5196787;22;20052;-16
2022/09/20 09:01:42;;;;;;;0.30;0.30;;;24.40;39.00;;;;;;5115003;28;20027;-15
2022/09/20 09:04:28;;;;;;;1.33;0.50;;;24.50;38.40;;;;;;5114269;28;20041;-15
2022/09/20 09:06:53;;;;;;;1.45;0.80;;;24.50;38.50;;;;;;5114259;28;20028;-15
2022/09/20 09:09:24;;;;;;;1.20;0.88;;;24.60;39.00;;;;;;5114115;28;20048;-17
2022/09/20 09:11:52;;;;;;;1.20;0.65;;;24.80;38.60;;;;;;5114381;28;20028;-14
2022/09/20 09:14:48;;;;;;;1.52;0.68;;;24.90;38.90;;;;;;5113981;28;20019;-15
2022/09/20 09:17:32;;;;;;;1.75;0.70;;;24.90;38.30;;;;;;5114624;28;20099;-16
2022/09/20 09:20:22;;;;;;;2.00;1.08;;;25.10;38.50;;;;;;5114077;28;20031;-15
2022/09/20 09:23:04;;;;;;;1.15;0.70;;;25.30;38.50;;;;;;5114213;28;20031;-15
2022/09/20 09:25:36;;;;;;;1.75;0.82;;;25.40;38.00;;;;;;5114345;28;20124;-16
2022/09/20 09:28:08;;;;;;;2.10;0.90;;;25.50;38.90;;;;;;5114140;28;20024;-15
2022/09/20 09:30:41;;;;;;;1.25;0.70;;;25.60;39.30;;;;;;5113681;28;20020;-15
2022/09/20 09:33:25;;;;;;;3.60;0.90;;;25.50;39.10;;;;;;5113709;28;20533;-13
2022/09/20 09:36:06;;;;;;;1.83;0.90;;;25.60;38.60;;;;;;5114117;28;20065;-15
2022/09/20 09:38:35;;;;;;;3.22;0.40;;;25.80;37.80;;;;;;5113931;28;20024;-14
2022/09/20 09:41:05;;;;;;;1.98;0.90;;;26.10;39.20;;;;;;5113468;28;20066;-16
2022/09/20 09:43:34;;;;;;;3.10;0.90;;;26.40;38.70;;;;;;5113767;28;20032;-15
2022/09/20 09:46:25;;;;;;;2.17;1.17;;;26.50;38.20;;;;;;5113602;28;20028;-15
2022/09/20 09:49:17;;;;;;;2.45;0.75;;;26.60;36.60;;;;;;5113392;28;20110;-15
2022/09/20 09:52:02;;;;;;;1.48;0.98;;;26.80;37.50;;;;;;5114057;28;20386;-15
2022/09/20 09:54:49;;;;;;;2.72;0.98;;;26.90;36.90;;;;;;5113770;28;20045;-16
2022/09/20 09:57:27;;;;;;;1.15;0.75;;;26.90;37.20;;;;;;5113637;28;20080;-16
2022/09/20 10:00:05;;;;;;;2.97;1.20;;;26.90;38.60;;;;;;5113395;28;20048;-16
2022/09/20 10:02:48;;;;;;;3.83;0.70;;;27.00;37.50;;;;;;5113807;28;20043;-16
2022/09/20 10:05:35;;;;;;;1.55;0.80;;;27.20;37.00;;;;;;5095902;28;20391;-15
2022/09/20 10:08:09;;;;;;;2.40;0.82;;;27.30;37.10;;;;;;5113024;28;20081;-15
2022/09/20 10:10:40;;;;;;;2.97;0.90;;;27.30;37.60;;;;;;5113834;28;20028;-14
2022/09/20 10:13:19;;;;;;;2.15;0.80;;;27.00;37.40;;;;;;5113347;28;20028;-15
2022/09/20 10:16:16;;;;;;;2.75;0.70;;;27.00;37.70;;;;;;5113344;28;20024;-15
2022/09/20 10:18:52;;;;;;;1.00;0.80;;;27.20;37.60;;;;;;5113713;28;20028;-15
2022/09/20 10:21:47;;;;;;;0.63;0.60;;;27.30;37.40;;;;;;5114331;28;20032;-15
2022/09/20 10:24:40;;;;;;;1.17;0.80;;;27.60;37.50;;;;;;5113229;28;20119;-15
2022/09/20 10:27:39;;;;;;;2.33;0.75;;;28.00;37.20;;;;;;5094867;28;20395;-14
2022/09/20 10:30:32;;;;;;;3.30;0.75;;;28.20;34.10;;;;;;5113206;28;20028;-17
2022/09/20 10:33:02;;;;;;;0.80;0.70;;;28.20;36.50;;;;;;5112316;28;20066;-15
2022/09/20 10:35:52;;;;;;;0.93;0.60;;;28.40;36.20;;;;;;5113223;28;20035;-15
2022/09/20 10:38:30;;;;;;;1.75;0.57;;;28.70;36.30;;;;;;5113462;28;20019;-15
2022/09/20 10:44:09;;;;;;;1.17;0.70;;;29.50;34.50;;;;;;5117281;28;20061;-15
2022/09/20 10:46:50;;;;;;;0.93;0.50;;;29.80;34.00;;;;;;5116910;28;20032;-14
2022/09/20 10:49:41;;;;;;;1.60;0.70;;;29.90;34.70;;;;;;5116877;28;20032;-15
2022/09/20 10:52:41;;;;;;;1.30;0.73;;;30.10;33.90;;;;;;5117216;28;20027;-15
2022/09/20 10:55:46;;;;;;;0.90;0.90;;;30.40;32.10;;;;;;5116936;28;20035;-15
2022/09/20 10:58:30;;;;;;;0.93;0.60;;;30.60;33.40;;;;;;5116690;28;20056;-15
2022/09/20 11:01:22;;;;;;;2.03;0.85;;;30.80;32.60;;;;;;5116505;28;20020;-15
2022/09/20 11:03:48;;;;;;;0.55;0.55;;;30.70;33.10;;;;;;5116537;28;20038;-15
2022/09/20 11:06:48;;;;;;;1.85;0.60;;;30.90;33.20;;;;;;5116507;28;20028;-16
2022/09/20 11:09:23;;;;;;;2.00;0.70;;;31.40;30.20;;;;;;5116492;28;20028;-15
2022/09/20 11:12:15;;;;;;;0.80;0.70;;;31.50;29.80;;;;;;5116789;28;20045;-15
2022/09/20 11:14:53;;;;;;;1.05;0.63;;;31.40;30.80;;;;;;5116359;28;20066;-15
2022/09/20 11:17:34;;;;;;;4.60;0.70;;;31.30;31.40;;;;;;5116400;28;20016;-15
2022/09/20 11:20:14;;;;;;;2.03;0.80;;;31.40;31.40;;;;;;5116718;28;20036;-16
2022/09/20 11:22:50;;;;;;;0.95;0.77;;;31.20;30.60;;;;;;5116325;28;20020;-15
2022/09/20 11:25:21;;;;;;;0.80;0.55;;;30.60;31.60;;;;;;5116500;28;20028;-14
2022/09/20 11:27:57;;;;;;;1.17;0.77;;;30.50;32.30;;;;;;5116385;28;20363;-15
2022/09/20 11:30:24;;;;;;;3.72;0.68;;;30.60;32.40;;;;;;5116530;28;20429;-15
2022/09/20 11:32:56;;;;;;;1.55;0.60;;;30.50;32.40;;;;;;5115826;28;20026;-14
2022/09/20 11:35:34;;;;;;;;;;;30.70;32.40;;;;;;5116415;28;20028;-14
2022/09/20 11:38:22;;;;;;;1.67;0.70;;;31.00;30.00;;;;;;5116666;28;19932;-15
2022/09/20 11:41:22;;;;;;;1.55;0.85;;;31.50;32.00;;;;;;5115919;28;20030;-14
2022/09/20 11:43:49;;;;;;;1.38;0.77;;;31.80;31.00;;;;;;5033069;28;20650;-16
2022/09/20 11:46:46;;;;;;;1.25;0.75;;;32.10;30.80;;;;;;5033214;28;20029;-15
2022/09/20 11:49:50;;;;;;;1.83;0.90;;;32.70;30.10;;;;;;5033075;28;20026;-15
2022/09/20 11:52:33;;;;;;;1.67;0.68;;;33.30;28.50;;;;;;5032066;28;20029;-15
2022/09/20 11:55:14;;;;;;;3.85;0.75;;;33.30;27.10;;;;;;5032776;28;20030;-15
2022/09/20 11:57:40;;;;;;;1.17;0.90;;;32.80;28.00;;;;;;5032491;28;20524;-15
2022/09/20 12:00:08;;;;;;;3.17;1.10;;;32.60;27.90;;;;;;5013330;28;20081;-15
2022/09/20 12:02:49;;;;;;;1.83;0.70;;;32.40;28.20;;;;;;5013098;28;20037;-15
2022/09/20 12:05:31;;;;;;;1.50;0.60;;;32.20;29.00;;;;;;5013021;28;20485;-15
2022/09/20 12:08:02;;;;;;;1.85;0.70;;;32.40;28.90;;;;;;5013135;28;20048;-15
2022/09/20 12:10:38;;;;;;;0.88;0.82;;;32.80;29.40;;;;;;5013207;28;20124;-15
2022/09/20 12:13:24;;;;;;;0.88;0.57;;;32.90;28.20;;;;;;5012630;28;20109;-15
2022/09/20 12:16:42;;;;;;;1.77;0.70;;;32.50;27.60;;;;;;5012914;28;20108;-15
2022/09/20 12:19:35;;;;;;;1.40;0.75;;;31.70;28.50;;;;;;4959220;28;20039;-15
2022/09/20 12:22:02;;;;;;;3.33;0.95;;;31.10;29.50;;;;;;5032641;28;20041;-15
2022/09/20 12:24:33;;;;;;;1.45;0.90;;;30.90;29.90;;;;;;5032622;28;20091;-15
2022/09/20 12:27:28;;;;;;;1.02;0.60;;;31.20;29.90;;;;;;5032213;28;20048;-15
2022/09/20 12:30:15;;;;;;;1.58;0.80;;;31.30;30.30;;;;;;5017265;28;20063;-15
2022/09/20 12:32:45;;;;;;;1.15;0.70;;;31.60;29.90;;;;;;5032313;28;20057;-15
2022/09/20 12:35:35;;;;;;;1.95;0.80;;;31.90;30.10;;;;;;5032105;28;20060;-15
2022/09/20 12:38:28;;;;;;;1.85;0.75;;;32.50;29.10;;;;;;5032213;28;20045;-15
2022/09/20 12:40:59;;;;;;;1.80;0.70;;;32.80;28.70;;;;;;5031819;28;20493;-15
2022/09/20 12:43:29;;;;;;;1.27;0.80;;;33.20;28.70;;;;;;5032417;28;20278;-15
2022/09/20 12:45:56;;;;;;;1.35;0.70;;;33.60;28.60;;;;;;5032551;28;20558;-15
2022/09/20 12:48:23;;;;;;;1.38;0.60;;;34.00;27.40;;;;;;5032233;28;20064;-16
2022/09/20 12:54:00;;;;;;;1.83;0.70;;;34.50;27.60;;;;;;5043389;28;20110;-15
2022/09/20 12:56:27;;;;;;;2.15;0.90;;;34.70;27.60;;;;;;5074111;28;20138;-14
2022/09/20 12:58:56;;;;;;;1.67;0.95;;;34.80;26.70;;;;;;5094438;28;20048;-15
2022/09/20 13:01:22;;;;;;;1.38;0.80;;;34.60;26.40;;;;;;5096090;28;20030;-15
2022/09/20 13:03:51;;;;;;;0.73;0.70;;;34.10;27.40;;;;;;5113823;28;20390;-15
2022/09/20 13:06:18;;;;;;;1.75;0.65;;;33.90;28.00;;;;;;5114240;28;20027;-15
2022/09/20 13:08:53;;;;;;;0.68;0.60;;;34.00;27.70;;;;;;5114432;28;20559;-15
2022/09/20 13:11:21;;;;;;;2.22;0.70;;;34.10;27.60;;;;;;5114150;28;20098;-15
2022/09/20 13:13:56;;;;;;;0.85;0.65;;;34.30;27.60;;;;;;5114076;28;20030;-15
2022/09/20 13:16:43;;;;;;;1.17;0.68;;;34.40;27.00;;;;;;5114118;28;20102;-15
2022/09/20 13:19:20;;;;;;;0.77;0.70;;;34.50;26.60;;;;;;5113920;28;20089;-14
2022/09/20 13:22:16;;;;;;;2.58;0.80;;;34.50;26.20;;;;;;5114009;28;20019;-15
2022/09/20 13:25:00;;;;;;;1.40;0.70;;;34.60;26.70;;;;;;5095633;28;20035;-15
2022/09/20 13:27:38;;;;;;;0.60;0.60;;;34.70;27.20;;;;;;5113935;28;20382;-15
2022/09/20 13:30:09;;;;;;;0.63;0.50;;;34.90;26.90;;;;;;5114595;28;20023;-15
2022/09/20 13:32:40;;;;;;;1.63;0.73;;;35.30;26.80;;;;;;5114125;28;20015;-15
2022/09/20 13:35:09;;;;;;;1.13;0.60;;;35.40;26.60;;;;;;5113928;28;20055;-16
2022/09/20 13:37:37;;;;;;;1.75;0.90;;;35.10;26.80;;;;;;5114053;28;20027;-15
2022/09/20 13:40:05;;;;;;;2.53;0.82;;;34.50;26.90;;;;;;5114046;28;20028;-15
2022/09/20 13:42:34;;;;;;;2.28;0.93;;;34.20;27.40;;;;;;5113951;28;20035;-15
2022/09/20 13:45:03;;;;;;;0.77;0.77;;;33.90;27.50;;;;;;5113346;28;20479;-15
2022/09/20 13:47:31;;;;;;;1.20;0.80;;;33.50;27.50;;;;;;5113931;28;20024;-15
2022/09/20 13:50:37;;;;;;;0.95;0.82;;;33.20;28.10;;;;;;5113786;28;20479;-15
2022/09/20 13:53:14;;;;;;;1.40;0.85;;;33.10;27.80;;;;;;5030893;28;20377;-15
2022/09/20 13:55:45;;;;;;;0.82;0.77;;;32.50;28.30;;;;;;5031485;28;20056;-15
2022/09/20 13:58:31;;;;;;;1.63;0.80;;;31.80;29.20;;;;;;5026307;28;20044;-15
2022/09/20 14:00:59;;;;;;;1.50;0.68;;;31.10;29.90;;;;;;5010975;28;20026;-14
2022/09/20 14:03:27;;;;;;;2.03;1.00;;;30.50;30.90;;;;;;5011089;28;20402;-15
2022/09/20 14:06:01;;;;;;;1.67;0.80;;;30.00;31.40;;;;;;5011117;28;20061;-15
2022/09/20 14:08:41;;;;;;;1.38;0.80;;;29.60;32.40;;;;;;5011205;28;20581;-17
2022/09/20 14:11:20;;;;;;;2.38;0.80;;;29.20;32.80;;;;;;5011092;28;20034;-15